sensor_id;sensor_type;location;lat;lon;timestamp;P1;durP1;ratioP1;P2;durP2;ratioP2
18726;SDS011;9492;51.888;5.186;2022-09-09T00:00:18;1.50;;;1.20;;
18726;SDS011;9492;51.888;5.186;2022-09-09T00:02:55;1.30;;;1.20;;
18726;SDS011;9492;51.888;5.186;2022-09-09T00:05:44;2.87;;;1.10;;
18726;SDS011;9492;51.888;5.186;2022-09-09T00:08:21;2.17;;;1.20;;
18726;SDS011;9492;51.888;5.186;2022-09-09T00:10:51;1.43;;;1.17;;
18726;SDS011;9492;51.888;5.186;2022-09-09T00:18:22;2.07;;;1.23;;
18726;SDS011;9492;51.888;5.186;2022-09-09T00:23:19;3.70;;;1.67;;
18726;SDS011;9492;51.888;5.186;2022-09-09T00:28:19;1.83;;;1.13;;
18726;SDS011;9492;51.888;5.186;2022-09-09T00:30:46;1.60;;;1.43;;
18726;SDS011;9492;51.888;5.186;2022-09-09T00:33:16;2.77;;;1.40;;
18726;SDS011;9492;51.888;5.186;2022-09-09T00:35:50;6.47;;;2.20;;
18726;SDS011;9492;51.888;5.186;2022-09-09T00:38:18;3.87;;;1.90;;
18726;SDS011;9492;51.888;5.186;2022-09-09T00:40:48;1.90;;;1.20;;
18726;SDS011;9492;51.888;5.186;2022-09-09T00:43:20;1.57;;;1.43;;
18726;SDS011;9492;51.888;5.186;2022-09-09T00:48:30;1.60;;;1.50;;
18726;SDS011;9492;51.888;5.186;2022-09-09T00:51:00;2.67;;;1.70;;
18726;SDS011;9492;51.888;5.186;2022-09-09T00:58:20;3.57;;;1.70;;
18726;SDS011;9492;51.888;5.186;2022-09-09T01:00:49;2.37;;;1.63;;
18726;SDS011;9492;51.888;5.186;2022-09-09T01:05:55;1.60;;;1.47;;
18726;SDS011;9492;51.888;5.186;2022-09-09T01:10:58;1.50;;;1.40;;
18726;SDS011;9492;51.888;5.186;2022-09-09T01:13:34;3.67;;;1.30;;
18726;SDS011;9492;51.888;5.186;2022-09-09T01:16:01;2.30;;;1.63;;
18726;SDS011;9492;51.888;5.186;2022-09-09T01:18:29;3.03;;;1.67;;
18726;SDS011;9492;51.888;5.186;2022-09-09T01:21:04;2.63;;;1.70;;
18726;SDS011;9492;51.888;5.186;2022-09-09T01:28:49;4.47;;;2.50;;
18726;SDS011;9492;51.888;5.186;2022-09-09T01:31:28;4.83;;;3.50;;
18726;SDS011;9492;51.888;5.186;2022-09-09T01:33:56;4.67;;;3.10;;
18726;SDS011;9492;51.888;5.186;2022-09-09T01:38:48;5.50;;;3.43;;
18726;SDS011;9492;51.888;5.186;2022-09-09T01:41:14;4.03;;;3.03;;
18726;SDS011;9492;51.888;5.186;2022-09-09T01:43:40;3.90;;;3.50;;
18726;SDS011;9492;51.888;5.186;2022-09-09T01:46:06;6.23;;;3.87;;
18726;SDS011;9492;51.888;5.186;2022-09-09T01:48:32;3.37;;;2.77;;
18726;SDS011;9492;51.888;5.186;2022-09-09T01:50:58;3.23;;;2.93;;
18726;SDS011;9492;51.888;5.186;2022-09-09T01:53:24;4.40;;;3.90;;
18726;SDS011;9492;51.888;5.186;2022-09-09T02:00:55;5.87;;;4.00;;
18726;SDS011;9492;51.888;5.186;2022-09-09T02:05:50;5.17;;;4.37;;
18726;SDS011;9492;51.888;5.186;2022-09-09T02:08:21;4.47;;;3.80;;
18726;SDS011;9492;51.888;5.186;2022-09-09T02:13:35;5.90;;;3.40;;
18726;SDS011;9492;51.888;5.186;2022-09-09T02:18:50;4.53;;;3.50;;
18726;SDS011;9492;51.888;5.186;2022-09-09T02:21:17;4.83;;;3.43;;
18726;SDS011;9492;51.888;5.186;2022-09-09T02:23:43;4.77;;;4.03;;
18726;SDS011;9492;51.888;5.186;2022-09-09T02:26:12;5.77;;;4.27;;
18726;SDS011;9492;51.888;5.186;2022-09-09T02:28:44;5.70;;;4.47;;
18726;SDS011;9492;51.888;5.186;2022-09-09T02:31:10;7.83;;;4.27;;
18726;SDS011;9492;51.888;5.186;2022-09-09T02:33:38;4.53;;;3.70;;
18726;SDS011;9492;51.888;5.186;2022-09-09T02:36:05;6.03;;;4.10;;
18726;SDS011;9492;51.888;5.186;2022-09-09T02:38:34;6.00;;;4.07;;
18726;SDS011;9492;51.888;5.186;2022-09-09T02:41:02;4.67;;;3.43;;
18726;SDS011;9492;51.888;5.186;2022-09-09T02:43:32;3.43;;;3.00;;
18726;SDS011;9492;51.888;5.186;2022-09-09T02:48:34;3.90;;;3.50;;
18726;SDS011;9492;51.888;5.186;2022-09-09T02:53:32;3.87;;;3.00;;
18726;SDS011;9492;51.888;5.186;2022-09-09T02:56:05;6.10;;;2.53;;
18726;SDS011;9492;51.888;5.186;2022-09-09T02:58:34;4.03;;;2.47;;
18726;SDS011;9492;51.888;5.186;2022-09-09T03:01:00;8.17;;;2.83;;
18726;SDS011;9492;51.888;5.186;2022-09-09T03:03:27;15.90;;;2.87;;
18726;SDS011;9492;51.888;5.186;2022-09-09T03:05:54;3.43;;;2.60;;
18726;SDS011;9492;51.888;5.186;2022-09-09T03:08:20;4.47;;;2.57;;
18726;SDS011;9492;51.888;5.186;2022-09-09T03:10:46;5.17;;;3.00;;
18726;SDS011;9492;51.888;5.186;2022-09-09T03:13:13;4.80;;;2.90;;
18726;SDS011;9492;51.888;5.186;2022-09-09T03:15:40;3.50;;;2.60;;
18726;SDS011;9492;51.888;5.186;2022-09-09T03:18:06;6.00;;;2.83;;
18726;SDS011;9492;51.888;5.186;2022-09-09T03:20:32;5.80;;;2.87;;
18726;SDS011;9492;51.888;5.186;2022-09-09T03:22:58;4.03;;;2.57;;
18726;SDS011;9492;51.888;5.186;2022-09-09T03:25:25;7.73;;;3.13;;
18726;SDS011;9492;51.888;5.186;2022-09-09T03:27:51;4.73;;;2.70;;
18726;SDS011;9492;51.888;5.186;2022-09-09T03:30:19;4.00;;;3.10;;
18726;SDS011;9492;51.888;5.186;2022-09-09T03:32:45;3.50;;;2.43;;
18726;SDS011;9492;51.888;5.186;2022-09-09T03:35:11;5.00;;;2.83;;
18726;SDS011;9492;51.888;5.186;2022-09-09T03:37:37;4.33;;;2.20;;
18726;SDS011;9492;51.888;5.186;2022-09-09T03:40:03;6.57;;;2.43;;
18726;SDS011;9492;51.888;5.186;2022-09-09T03:42:31;4.43;;;2.50;;
18726;SDS011;9492;51.888;5.186;2022-09-09T03:44:56;4.77;;;2.83;;
18726;SDS011;9492;51.888;5.186;2022-09-09T03:47:24;5.43;;;2.80;;
18726;SDS011;9492;51.888;5.186;2022-09-09T03:49:50;3.43;;;2.30;;
18726;SDS011;9492;51.888;5.186;2022-09-09T03:52:16;4.43;;;2.60;;
18726;SDS011;9492;51.888;5.186;2022-09-09T03:54:43;4.17;;;2.10;;
18726;SDS011;9492;51.888;5.186;2022-09-09T03:57:09;3.30;;;2.10;;
18726;SDS011;9492;51.888;5.186;2022-09-09T03:59:36;4.43;;;2.80;;
18726;SDS011;9492;51.888;5.186;2022-09-09T04:02:02;2.13;;;1.87;;
18726;SDS011;9492;51.888;5.186;2022-09-09T04:04:29;3.00;;;2.17;;
18726;SDS011;9492;51.888;5.186;2022-09-09T04:06:55;2.20;;;2.00;;
18726;SDS011;9492;51.888;5.186;2022-09-09T04:09:21;3.43;;;2.03;;
18726;SDS011;9492;51.888;5.186;2022-09-09T04:11:47;2.53;;;2.00;;
18726;SDS011;9492;51.888;5.186;2022-09-09T04:14:14;3.33;;;2.20;;
18726;SDS011;9492;51.888;5.186;2022-09-09T04:16:40;5.57;;;2.23;;
18726;SDS011;9492;51.888;5.186;2022-09-09T04:19:09;6.70;;;2.10;;
18726;SDS011;9492;51.888;5.186;2022-09-09T04:21:37;3.07;;;2.30;;
18726;SDS011;9492;51.888;5.186;2022-09-09T04:24:04;3.87;;;2.37;;
18726;SDS011;9492;51.888;5.186;2022-09-09T04:26:30;4.73;;;2.10;;
18726;SDS011;9492;51.888;5.186;2022-09-09T04:28:57;4.80;;;2.10;;
18726;SDS011;9492;51.888;5.186;2022-09-09T04:31:23;2.67;;;2.03;;
18726;SDS011;9492;51.888;5.186;2022-09-09T04:33:52;4.60;;;2.00;;
18726;SDS011;9492;51.888;5.186;2022-09-09T04:36:18;3.87;;;2.10;;
18726;SDS011;9492;51.888;5.186;2022-09-09T04:38:44;3.73;;;2.17;;
18726;SDS011;9492;51.888;5.186;2022-09-09T04:41:10;6.13;;;2.53;;
18726;SDS011;9492;51.888;5.186;2022-09-09T04:43:39;5.80;;;2.27;;
18726;SDS011;9492;51.888;5.186;2022-09-09T04:46:05;5.23;;;2.50;;
18726;SDS011;9492;51.888;5.186;2022-09-09T04:48:32;5.87;;;2.40;;
18726;SDS011;9492;51.888;5.186;2022-09-09T04:50:59;3.37;;;2.07;;
18726;SDS011;9492;51.888;5.186;2022-09-09T04:53:26;7.23;;;2.43;;
18726;SDS011;9492;51.888;5.186;2022-09-09T04:56:00;5.97;;;2.80;;
18726;SDS011;9492;51.888;5.186;2022-09-09T04:58:26;3.80;;;2.57;;
18726;SDS011;9492;51.888;5.186;2022-09-09T05:00:52;4.23;;;2.57;;
18726;SDS011;9492;51.888;5.186;2022-09-09T05:03:18;3.87;;;2.27;;
18726;SDS011;9492;51.888;5.186;2022-09-09T05:05:44;3.83;;;2.07;;
18726;SDS011;9492;51.888;5.186;2022-09-09T05:08:10;5.83;;;2.37;;
18726;SDS011;9492;51.888;5.186;2022-09-09T05:10:37;5.60;;;2.80;;
18726;SDS011;9492;51.888;5.186;2022-09-09T05:13:03;5.73;;;2.33;;
18726;SDS011;9492;51.888;5.186;2022-09-09T05:15:30;4.20;;;1.97;;
18726;SDS011;9492;51.888;5.186;2022-09-09T05:18:00;4.87;;;2.00;;
18726;SDS011;9492;51.888;5.186;2022-09-09T05:20:27;3.23;;;2.27;;
18726;SDS011;9492;51.888;5.186;2022-09-09T05:22:54;3.77;;;2.10;;
18726;SDS011;9492;51.888;5.186;2022-09-09T05:25:20;8.83;;;2.87;;
18726;SDS011;9492;51.888;5.186;2022-09-09T05:27:47;2.20;;;2.00;;
18726;SDS011;9492;51.888;5.186;2022-09-09T05:30:14;2.93;;;2.00;;
18726;SDS011;9492;51.888;5.186;2022-09-09T05:32:40;4.50;;;2.27;;
18726;SDS011;9492;51.888;5.186;2022-09-09T05:35:06;6.60;;;2.43;;
18726;SDS011;9492;51.888;5.186;2022-09-09T05:37:32;6.93;;;2.30;;
18726;SDS011;9492;51.888;5.186;2022-09-09T05:39:58;5.70;;;2.17;;
18726;SDS011;9492;51.888;5.186;2022-09-09T05:42:29;4.87;;;2.27;;
18726;SDS011;9492;51.888;5.186;2022-09-09T05:44:55;7.00;;;1.93;;
18726;SDS011;9492;51.888;5.186;2022-09-09T05:47:23;4.67;;;2.17;;
18726;SDS011;9492;51.888;5.186;2022-09-09T05:49:49;7.57;;;2.33;;
18726;SDS011;9492;51.888;5.186;2022-09-09T05:52:15;7.53;;;2.23;;
18726;SDS011;9492;51.888;5.186;2022-09-09T05:54:41;4.30;;;2.50;;
18726;SDS011;9492;51.888;5.186;2022-09-09T05:57:08;4.67;;;2.20;;
18726;SDS011;9492;51.888;5.186;2022-09-09T05:59:34;6.23;;;1.90;;
18726;SDS011;9492;51.888;5.186;2022-09-09T06:02:00;8.37;;;2.47;;
18726;SDS011;9492;51.888;5.186;2022-09-09T06:04:26;6.60;;;2.43;;
18726;SDS011;9492;51.888;5.186;2022-09-09T06:06:52;5.33;;;2.10;;
18726;SDS011;9492;51.888;5.186;2022-09-09T06:09:18;3.50;;;2.00;;
18726;SDS011;9492;51.888;5.186;2022-09-09T06:11:44;5.00;;;2.03;;
18726;SDS011;9492;51.888;5.186;2022-09-09T06:14:10;4.60;;;2.00;;
18726;SDS011;9492;51.888;5.186;2022-09-09T06:16:36;5.40;;;2.60;;
18726;SDS011;9492;51.888;5.186;2022-09-09T06:19:02;5.80;;;2.63;;
18726;SDS011;9492;51.888;5.186;2022-09-09T06:21:33;8.87;;;2.33;;
18726;SDS011;9492;51.888;5.186;2022-09-09T06:24:02;6.37;;;2.30;;
18726;SDS011;9492;51.888;5.186;2022-09-09T06:26:32;6.83;;;2.47;;
18726;SDS011;9492;51.888;5.186;2022-09-09T06:28:59;9.63;;;3.13;;
18726;SDS011;9492;51.888;5.186;2022-09-09T06:31:28;7.30;;;2.20;;
18726;SDS011;9492;51.888;5.186;2022-09-09T06:33:58;7.40;;;3.00;;
18726;SDS011;9492;51.888;5.186;2022-09-09T06:36:26;5.03;;;2.97;;
18726;SDS011;9492;51.888;5.186;2022-09-09T06:38:53;7.17;;;2.57;;
18726;SDS011;9492;51.888;5.186;2022-09-09T06:41:20;7.73;;;2.63;;
18726;SDS011;9492;51.888;5.186;2022-09-09T06:43:46;5.80;;;2.67;;
18726;SDS011;9492;51.888;5.186;2022-09-09T06:46:14;7.40;;;2.70;;
18726;SDS011;9492;51.888;5.186;2022-09-09T06:48:40;6.40;;;2.83;;
18726;SDS011;9492;51.888;5.186;2022-09-09T06:51:16;5.73;;;2.60;;
18726;SDS011;9492;51.888;5.186;2022-09-09T06:53:43;5.70;;;2.43;;
18726;SDS011;9492;51.888;5.186;2022-09-09T06:58:38;7.10;;;2.83;;
18726;SDS011;9492;51.888;5.186;2022-09-09T07:01:12;9.07;;;2.87;;
18726;SDS011;9492;51.888;5.186;2022-09-09T07:03:39;10.13;;;3.13;;
18726;SDS011;9492;51.888;5.186;2022-09-09T07:06:05;6.50;;;3.00;;
18726;SDS011;9492;51.888;5.186;2022-09-09T07:08:32;6.80;;;2.37;;
18726;SDS011;9492;51.888;5.186;2022-09-09T07:11:02;5.20;;;2.40;;
18726;SDS011;9492;51.888;5.186;2022-09-09T07:13:29;6.93;;;2.23;;
18726;SDS011;9492;51.888;5.186;2022-09-09T07:16:02;5.53;;;2.30;;
18726;SDS011;9492;51.888;5.186;2022-09-09T07:18:29;8.03;;;2.53;;
18726;SDS011;9492;51.888;5.186;2022-09-09T07:20:55;8.63;;;2.13;;
18726;SDS011;9492;51.888;5.186;2022-09-09T07:23:21;5.10;;;2.40;;
18726;SDS011;9492;51.888;5.186;2022-09-09T07:25:48;10.33;;;2.87;;
18726;SDS011;9492;51.888;5.186;2022-09-09T07:28:14;5.93;;;1.70;;
18726;SDS011;9492;51.888;5.186;2022-09-09T07:30:40;6.10;;;1.83;;
18726;SDS011;9492;51.888;5.186;2022-09-09T07:33:06;4.63;;;1.40;;
18726;SDS011;9492;51.888;5.186;2022-09-09T07:35:32;5.50;;;1.90;;
18726;SDS011;9492;51.888;5.186;2022-09-09T07:38:00;6.87;;;1.83;;
18726;SDS011;9492;51.888;5.186;2022-09-09T07:40:26;7.03;;;1.90;;
18726;SDS011;9492;51.888;5.186;2022-09-09T07:42:53;6.87;;;1.97;;
18726;SDS011;9492;51.888;5.186;2022-09-09T07:45:19;4.60;;;1.40;;
18726;SDS011;9492;51.888;5.186;2022-09-09T07:47:45;6.20;;;1.97;;
18726;SDS011;9492;51.888;5.186;2022-09-09T07:50:11;5.23;;;1.87;;
18726;SDS011;9492;51.888;5.186;2022-09-09T07:52:37;7.10;;;2.33;;
18726;SDS011;9492;51.888;5.186;2022-09-09T07:55:03;5.07;;;2.27;;
18726;SDS011;9492;51.888;5.186;2022-09-09T07:57:29;4.43;;;1.37;;
18726;SDS011;9492;51.888;5.186;2022-09-09T07:59:55;3.90;;;1.50;;
18726;SDS011;9492;51.888;5.186;2022-09-09T08:02:22;3.47;;;1.57;;
18726;SDS011;9492;51.888;5.186;2022-09-09T08:04:48;7.07;;;2.03;;
18726;SDS011;9492;51.888;5.186;2022-09-09T08:07:14;7.53;;;2.40;;
18726;SDS011;9492;51.888;5.186;2022-09-09T08:09:41;7.53;;;2.10;;
18726;SDS011;9492;51.888;5.186;2022-09-09T08:12:07;4.90;;;1.80;;
18726;SDS011;9492;51.888;5.186;2022-09-09T08:14:34;3.87;;;1.53;;
18726;SDS011;9492;51.888;5.186;2022-09-09T08:17:00;5.77;;;1.57;;
18726;SDS011;9492;51.888;5.186;2022-09-09T08:19:26;6.23;;;2.20;;
18726;SDS011;9492;51.888;5.186;2022-09-09T08:21:54;6.30;;;1.97;;
18726;SDS011;9492;51.888;5.186;2022-09-09T08:24:21;5.77;;;1.90;;
18726;SDS011;9492;51.888;5.186;2022-09-09T08:26:48;6.20;;;1.50;;
18726;SDS011;9492;51.888;5.186;2022-09-09T08:29:14;8.03;;;2.03;;
18726;SDS011;9492;51.888;5.186;2022-09-09T08:34:07;7.37;;;2.27;;
18726;SDS011;9492;51.888;5.186;2022-09-09T08:36:37;4.90;;;1.70;;
18726;SDS011;9492;51.888;5.186;2022-09-09T08:39:05;8.93;;;2.00;;
18726;SDS011;9492;51.888;5.186;2022-09-09T08:46:45;5.30;;;1.87;;
18726;SDS011;9492;51.888;5.186;2022-09-09T08:49:18;8.10;;;1.70;;
18726;SDS011;9492;51.888;5.186;2022-09-09T08:51:50;7.20;;;1.60;;
18726;SDS011;9492;51.888;5.186;2022-09-09T08:54:20;5.70;;;1.77;;
18726;SDS011;9492;51.888;5.186;2022-09-09T08:56:46;3.60;;;1.87;;
18726;SDS011;9492;51.888;5.186;2022-09-09T08:59:13;8.73;;;1.77;;
18726;SDS011;9492;51.888;5.186;2022-09-09T09:01:53;6.73;;;2.67;;
18726;SDS011;9492;51.888;5.186;2022-09-09T09:07:18;6.10;;;1.83;;
18726;SDS011;9492;51.888;5.186;2022-09-09T09:12:30;3.30;;;1.57;;
18726;SDS011;9492;51.888;5.186;2022-09-09T09:14:58;7.87;;;2.10;;
18726;SDS011;9492;51.888;5.186;2022-09-09T09:17:25;6.17;;;1.90;;
18726;SDS011;9492;51.888;5.186;2022-09-09T09:19:52;7.57;;;2.17;;
18726;SDS011;9492;51.888;5.186;2022-09-09T09:22:22;6.20;;;2.17;;
18726;SDS011;9492;51.888;5.186;2022-09-09T09:24:58;5.40;;;2.10;;
18726;SDS011;9492;51.888;5.186;2022-09-09T09:27:40;7.13;;;2.43;;
18726;SDS011;9492;51.888;5.186;2022-09-09T09:32:38;8.33;;;2.20;;
18726;SDS011;9492;51.888;5.186;2022-09-09T09:35:06;7.10;;;1.97;;
18726;SDS011;9492;51.888;5.186;2022-09-09T09:37:35;6.00;;;2.03;;
18726;SDS011;9492;51.888;5.186;2022-09-09T09:40:11;4.87;;;1.57;;
18726;SDS011;9492;51.888;5.186;2022-09-09T09:42:38;5.63;;;1.60;;
18726;SDS011;9492;51.888;5.186;2022-09-09T09:45:16;4.97;;;2.20;;
18726;SDS011;9492;51.888;5.186;2022-09-09T09:47:43;6.10;;;1.70;;
18726;SDS011;9492;51.888;5.186;2022-09-09T09:50:16;4.67;;;2.17;;
18726;SDS011;9492;51.888;5.186;2022-09-09T09:52:51;8.23;;;2.10;;
18726;SDS011;9492;51.888;5.186;2022-09-09T09:55:18;7.20;;;2.00;;
18726;SDS011;9492;51.888;5.186;2022-09-09T09:57:45;5.23;;;2.37;;
18726;SDS011;9492;51.888;5.186;2022-09-09T10:02:39;5.47;;;1.73;;
18726;SDS011;9492;51.888;5.186;2022-09-09T10:05:19;6.53;;;2.17;;
18726;SDS011;9492;51.888;5.186;2022-09-09T10:07:45;6.07;;;1.77;;
18726;SDS011;9492;51.888;5.186;2022-09-09T10:10:13;4.43;;;1.80;;
18726;SDS011;9492;51.888;5.186;2022-09-09T10:12:47;6.17;;;1.67;;
18726;SDS011;9492;51.888;5.186;2022-09-09T10:15:24;3.90;;;1.70;;
18726;SDS011;9492;51.888;5.186;2022-09-09T10:17:57;5.87;;;1.60;;
18726;SDS011;9492;51.888;5.186;2022-09-09T10:25:58;7.97;;;3.30;;
18726;SDS011;9492;51.888;5.186;2022-09-09T10:33:37;6.17;;;2.43;;
18726;SDS011;9492;51.888;5.186;2022-09-09T10:38:40;6.87;;;2.27;;
18726;SDS011;9492;51.888;5.186;2022-09-09T10:43:46;4.37;;;2.00;;
18726;SDS011;9492;51.888;5.186;2022-09-09T10:46:39;8.37;;;2.33;;
18726;SDS011;9492;51.888;5.186;2022-09-09T10:49:09;6.57;;;2.40;;
18726;SDS011;9492;51.888;5.186;2022-09-09T10:52:27;5.43;;;2.03;;
18726;SDS011;9492;51.888;5.186;2022-09-09T10:54:50;4.13;;;1.77;;
18726;SDS011;9492;51.888;5.186;2022-09-09T10:57:25;4.17;;;1.20;;
18726;SDS011;9492;51.888;5.186;2022-09-09T10:59:54;4.87;;;1.93;;
18726;SDS011;9492;51.888;5.186;2022-09-09T11:02:29;4.13;;;1.80;;
18726;SDS011;9492;51.888;5.186;2022-09-09T11:05:08;6.17;;;1.70;;
18726;SDS011;9492;51.888;5.186;2022-09-09T11:07:53;3.60;;;1.87;;
18726;SDS011;9492;51.888;5.186;2022-09-09T11:12:49;6.17;;;2.10;;
18726;SDS011;9492;51.888;5.186;2022-09-09T11:15:19;4.70;;;2.00;;
18726;SDS011;9492;51.888;5.186;2022-09-09T11:17:46;5.43;;;1.87;;
18726;SDS011;9492;51.888;5.186;2022-09-09T11:20:14;7.53;;;2.63;;
18726;SDS011;9492;51.888;5.186;2022-09-09T11:22:43;5.03;;;2.07;;
18726;SDS011;9492;51.888;5.186;2022-09-09T11:38:27;4.03;;;2.33;;
18726;SDS011;9492;51.888;5.186;2022-09-09T11:40:55;5.73;;;2.10;;
18726;SDS011;9492;51.888;5.186;2022-09-09T11:43:24;5.10;;;1.97;;
18726;SDS011;9492;51.888;5.186;2022-09-09T11:45:53;2.43;;;2.10;;
18726;SDS011;9492;51.888;5.186;2022-09-09T11:48:31;5.87;;;2.33;;
18726;SDS011;9492;51.888;5.186;2022-09-09T11:51:08;4.43;;;1.80;;
18726;SDS011;9492;51.888;5.186;2022-09-09T11:53:35;3.97;;;1.80;;
18726;SDS011;9492;51.888;5.186;2022-09-09T11:56:06;4.27;;;1.80;;
18726;SDS011;9492;51.888;5.186;2022-09-09T11:58:35;5.17;;;1.93;;
18726;SDS011;9492;51.888;5.186;2022-09-09T12:01:12;5.33;;;2.60;;
18726;SDS011;9492;51.888;5.186;2022-09-09T12:03:45;4.00;;;2.00;;
18726;SDS011;9492;51.888;5.186;2022-09-09T12:06:25;6.20;;;2.13;;
18726;SDS011;9492;51.888;5.186;2022-09-09T12:11:52;9.77;;;4.33;;
18726;SDS011;9492;51.888;5.186;2022-09-09T12:14:22;3.57;;;1.80;;
18726;SDS011;9492;51.888;5.186;2022-09-09T12:16:48;4.77;;;2.60;;
18726;SDS011;9492;51.888;5.186;2022-09-09T12:19:19;4.60;;;2.27;;
18726;SDS011;9492;51.888;5.186;2022-09-09T12:24:24;4.63;;;2.30;;
18726;SDS011;9492;51.888;5.186;2022-09-09T12:29:24;2.30;;;1.73;;
18726;SDS011;9492;51.888;5.186;2022-09-09T12:39:37;4.27;;;1.97;;
18726;SDS011;9492;51.888;5.186;2022-09-09T12:42:14;2.47;;;1.80;;
18726;SDS011;9492;51.888;5.186;2022-09-09T12:44:50;5.87;;;2.00;;
18726;SDS011;9492;51.888;5.186;2022-09-09T12:47:16;6.03;;;2.10;;
18726;SDS011;9492;51.888;5.186;2022-09-09T12:49:44;4.30;;;1.97;;
18726;SDS011;9492;51.888;5.186;2022-09-09T12:52:14;6.23;;;2.27;;
18726;SDS011;9492;51.888;5.186;2022-09-09T12:54:44;3.43;;;1.50;;
18726;SDS011;9492;51.888;5.186;2022-09-09T12:57:11;3.73;;;1.77;;
18726;SDS011;9492;51.888;5.186;2022-09-09T12:59:39;3.60;;;1.80;;
18726;SDS011;9492;51.888;5.186;2022-09-09T13:04:45;3.00;;;1.70;;
18726;SDS011;9492;51.888;5.186;2022-09-09T13:07:11;4.00;;;1.80;;
18726;SDS011;9492;51.888;5.186;2022-09-09T13:09:38;5.00;;;1.90;;
18726;SDS011;9492;51.888;5.186;2022-09-09T13:12:05;5.73;;;1.63;;
18726;SDS011;9492;51.888;5.186;2022-09-09T13:14:34;5.37;;;2.00;;
18726;SDS011;9492;51.888;5.186;2022-09-09T13:17:03;4.10;;;2.00;;
18726;SDS011;9492;51.888;5.186;2022-09-09T13:19:31;6.73;;;1.97;;
18726;SDS011;9492;51.888;5.186;2022-09-09T13:21:58;6.53;;;1.93;;
18726;SDS011;9492;51.888;5.186;2022-09-09T13:24:31;5.40;;;2.10;;
18726;SDS011;9492;51.888;5.186;2022-09-09T13:26:59;3.90;;;2.03;;
18726;SDS011;9492;51.888;5.186;2022-09-09T13:29:26;5.73;;;2.27;;
18726;SDS011;9492;51.888;5.186;2022-09-09T13:31:53;2.40;;;1.30;;
18726;SDS011;9492;51.888;5.186;2022-09-09T13:34:30;3.83;;;2.00;;
18726;SDS011;9492;51.888;5.186;2022-09-09T13:37:06;5.17;;;1.70;;
18726;SDS011;9492;51.888;5.186;2022-09-09T13:39:40;4.87;;;2.00;;
18726;SDS011;9492;51.888;5.186;2022-09-09T13:42:38;2.40;;;1.90;;
18726;SDS011;9492;51.888;5.186;2022-09-09T13:45:05;3.67;;;1.93;;
18726;SDS011;9492;51.888;5.186;2022-09-09T13:47:31;5.87;;;1.93;;
18726;SDS011;9492;51.888;5.186;2022-09-09T13:50:09;3.63;;;1.40;;
18726;SDS011;9492;51.888;5.186;2022-09-09T13:52:35;3.73;;;1.73;;
18726;SDS011;9492;51.888;5.186;2022-09-09T13:55:01;2.43;;;1.20;;
18726;SDS011;9492;51.888;5.186;2022-09-09T13:57:27;3.53;;;1.97;;
18726;SDS011;9492;51.888;5.186;2022-09-09T13:59:53;6.03;;;2.00;;
18726;SDS011;9492;51.888;5.186;2022-09-09T14:02:19;3.60;;;1.67;;
18726;SDS011;9492;51.888;5.186;2022-09-09T14:04:48;3.70;;;1.90;;
18726;SDS011;9492;51.888;5.186;2022-09-09T14:07:16;5.17;;;1.63;;
18726;SDS011;9492;51.888;5.186;2022-09-09T14:09:42;4.70;;;1.83;;
18726;SDS011;9492;51.888;5.186;2022-09-09T14:12:12;5.13;;;2.07;;
18726;SDS011;9492;51.888;5.186;2022-09-09T14:14:40;3.77;;;1.50;;
18726;SDS011;9492;51.888;5.186;2022-09-09T14:17:07;2.07;;;1.47;;
18726;SDS011;9492;51.888;5.186;2022-09-09T14:19:33;4.67;;;1.57;;
18726;SDS011;9492;51.888;5.186;2022-09-09T14:21:59;2.17;;;1.30;;
18726;SDS011;9492;51.888;5.186;2022-09-09T14:24:26;3.73;;;1.33;;
18726;SDS011;9492;51.888;5.186;2022-09-09T14:26:52;4.73;;;1.70;;
18726;SDS011;9492;51.888;5.186;2022-09-09T14:29:19;2.93;;;1.10;;
18726;SDS011;9492;51.888;5.186;2022-09-09T14:31:45;5.33;;;1.70;;
18726;SDS011;9492;51.888;5.186;2022-09-09T14:34:11;1.83;;;1.00;;
18726;SDS011;9492;51.888;5.186;2022-09-09T14:36:37;1.70;;;1.07;;
18726;SDS011;9492;51.888;5.186;2022-09-09T14:39:03;2.43;;;1.10;;
18726;SDS011;9492;51.888;5.186;2022-09-09T14:41:29;2.07;;;1.07;;
18726;SDS011;9492;51.888;5.186;2022-09-09T14:43:56;1.43;;;0.90;;
18726;SDS011;9492;51.888;5.186;2022-09-09T14:46:22;2.93;;;1.07;;
18726;SDS011;9492;51.888;5.186;2022-09-09T14:48:49;2.20;;;1.20;;
18726;SDS011;9492;51.888;5.186;2022-09-09T14:51:19;1.77;;;1.23;;
18726;SDS011;9492;51.888;5.186;2022-09-09T14:53:47;2.97;;;1.17;;
18726;SDS011;9492;51.888;5.186;2022-09-09T14:56:20;2.47;;;1.10;;
18726;SDS011;9492;51.888;5.186;2022-09-09T14:58:48;4.03;;;1.40;;
18726;SDS011;9492;51.888;5.186;2022-09-09T15:01:14;2.70;;;1.23;;
18726;SDS011;9492;51.888;5.186;2022-09-09T15:03:41;2.17;;;1.00;;
18726;SDS011;9492;51.888;5.186;2022-09-09T15:06:12;3.00;;;1.10;;
18726;SDS011;9492;51.888;5.186;2022-09-09T15:08:40;2.47;;;1.00;;
18726;SDS011;9492;51.888;5.186;2022-09-09T15:11:06;3.27;;;1.23;;
18726;SDS011;9492;51.888;5.186;2022-09-09T15:13:33;2.73;;;0.90;;
18726;SDS011;9492;51.888;5.186;2022-09-09T15:16:06;1.13;;;0.87;;
18726;SDS011;9492;51.888;5.186;2022-09-09T15:18:33;0.67;;;0.67;;
18726;SDS011;9492;51.888;5.186;2022-09-09T15:20:59;1.50;;;1.10;;
18726;SDS011;9492;51.888;5.186;2022-09-09T15:23:28;1.07;;;0.87;;
18726;SDS011;9492;51.888;5.186;2022-09-09T15:25:54;1.73;;;0.90;;
18726;SDS011;9492;51.888;5.186;2022-09-09T15:28:21;1.63;;;0.90;;
18726;SDS011;9492;51.888;5.186;2022-09-09T15:30:48;2.13;;;0.90;;
18726;SDS011;9492;51.888;5.186;2022-09-09T15:33:14;1.27;;;0.83;;
18726;SDS011;9492;51.888;5.186;2022-09-09T15:35:40;2.23;;;0.70;;
18726;SDS011;9492;51.888;5.186;2022-09-09T15:38:06;1.40;;;0.90;;
18726;SDS011;9492;51.888;5.186;2022-09-09T15:40:32;3.20;;;1.00;;
18726;SDS011;9492;51.888;5.186;2022-09-09T15:42:58;2.27;;;0.90;;
18726;SDS011;9492;51.888;5.186;2022-09-09T15:45:24;2.53;;;0.93;;
18726;SDS011;9492;51.888;5.186;2022-09-09T15:47:51;4.40;;;1.30;;
18726;SDS011;9492;51.888;5.186;2022-09-09T15:50:17;2.50;;;1.17;;
18726;SDS011;9492;51.888;5.186;2022-09-09T15:52:43;1.77;;;1.40;;
18726;SDS011;9492;51.888;5.186;2022-09-09T15:55:09;2.80;;;1.20;;
18726;SDS011;9492;51.888;5.186;2022-09-09T15:57:35;2.83;;;1.40;;
18726;SDS011;9492;51.888;5.186;2022-09-09T16:00:02;3.87;;;1.50;;
18726;SDS011;9492;51.888;5.186;2022-09-09T16:02:29;2.27;;;1.53;;
18726;SDS011;9492;51.888;5.186;2022-09-09T16:04:55;2.63;;;1.83;;
18726;SDS011;9492;51.888;5.186;2022-09-09T16:07:22;2.43;;;1.40;;
18726;SDS011;9492;51.888;5.186;2022-09-09T16:09:48;3.43;;;1.23;;
18726;SDS011;9492;51.888;5.186;2022-09-09T16:12:17;2.77;;;1.87;;
18726;SDS011;9492;51.888;5.186;2022-09-09T16:14:43;5.13;;;1.90;;
18726;SDS011;9492;51.888;5.186;2022-09-09T16:17:10;1.50;;;1.30;;
18726;SDS011;9492;51.888;5.186;2022-09-09T16:19:36;2.43;;;1.40;;
18726;SDS011;9492;51.888;5.186;2022-09-09T16:22:03;4.00;;;2.20;;
18726;SDS011;9492;51.888;5.186;2022-09-09T16:24:29;3.83;;;2.07;;
18726;SDS011;9492;51.888;5.186;2022-09-09T16:26:55;3.33;;;1.80;;
18726;SDS011;9492;51.888;5.186;2022-09-09T16:29:21;3.07;;;1.50;;
18726;SDS011;9492;51.888;5.186;2022-09-09T16:31:49;3.83;;;2.10;;
18726;SDS011;9492;51.888;5.186;2022-09-09T16:34:16;2.63;;;1.83;;
18726;SDS011;9492;51.888;5.186;2022-09-09T16:36:43;3.53;;;1.40;;
18726;SDS011;9492;51.888;5.186;2022-09-09T16:39:14;1.73;;;1.27;;
18726;SDS011;9492;51.888;5.186;2022-09-09T16:41:40;3.67;;;1.87;;
18726;SDS011;9492;51.888;5.186;2022-09-09T16:44:08;2.20;;;1.30;;
18726;SDS011;9492;51.888;5.186;2022-09-09T16:46:35;2.00;;;1.00;;
18726;SDS011;9492;51.888;5.186;2022-09-09T16:49:03;3.43;;;1.30;;
18726;SDS011;9492;51.888;5.186;2022-09-09T16:51:31;3.03;;;1.43;;
18726;SDS011;9492;51.888;5.186;2022-09-09T16:53:58;3.00;;;1.30;;
18726;SDS011;9492;51.888;5.186;2022-09-09T16:56:26;2.73;;;1.13;;
18726;SDS011;9492;51.888;5.186;2022-09-09T16:58:53;1.93;;;1.50;;
18726;SDS011;9492;51.888;5.186;2022-09-09T17:01:20;5.10;;;1.90;;
18726;SDS011;9492;51.888;5.186;2022-09-09T17:03:46;1.73;;;1.20;;
18726;SDS011;9492;51.888;5.186;2022-09-09T17:06:13;5.20;;;1.87;;